Time;durP1;ratioP1;P1;durP2;ratioP2;P2;SDS_P1;SDS_P2;PMS_P1;PMS_P2;Temp;Humidity;BMP_temperature;BMP_pressure;BME280_temperature;BME280_humidity;BME280_pressure;Samples;Min_cycle;Max_cycle;Signal;HPM_P1;HPM_P2
2021/06/25 16:14:06;;;;;;;18.17;13.63;;;;;;;;;;5172420;27;20428;-81
2021/06/25 16:16:36;;;;;;;18.30;14.10;;;30.40;67.40;;;;;;5172117;27;20038;-78
2021/06/25 16:19:06;;;;;;;15.52;13.93;;;30.70;67.40;;;;;;5172370;27;20033;-80
2021/06/25 16:21:36;;;;;;;18.98;13.57;;;31.00;66.60;;;;;;5153447;27;20031;-78
2021/06/25 16:24:03;;;;;;;17.40;13.43;;;31.30;66.10;;;;;;5172312;27;20038;-77
2021/06/25 16:26:30;;;;;;;21.60;13.35;;;31.50;65.50;;;;;;5119114;27;20057;-80
2021/06/25 16:28:56;;;;;;;19.20;12.93;;;31.60;65.30;;;;;;5153773;27;20506;-81
2021/06/25 16:31:22;;;;;;;17.70;13.68;;;31.80;65.50;;;;;;5172196;27;20378;-80
2021/06/25 16:33:48;;;;;;;22.25;13.48;;;31.90;65.20;;;;;;5153161;27;20030;-80
2021/06/25 16:36:18;;;;;;;16.23;13.63;;;32.00;65.50;;;;;;5171660;27;20039;-80
2021/06/25 16:38:44;;;;;;;22.35;14.32;;;32.00;65.00;;;;;;5134431;27;20518;-81
2021/06/25 16:41:11;;;;;;;18.83;14.70;;;32.10;65.30;;;;;;5153123;27;20061;-80
2021/06/25 16:43:38;;;;;;;18.08;14.25;;;32.10;65.50;;;;;;5172050;27;20023;-81
2021/06/25 16:46:04;;;;;;;23.95;14.13;;;32.20;65.40;;;;;;5172062;27;20440;-80
2021/06/25 16:48:30;;;;;;;21.45;13.77;;;32.20;65.30;;;;;;5171674;27;20069;-81
2021/06/25 16:50:56;;;;;;;17.63;13.95;;;32.20;64.80;;;;;;5171805;27;20438;-80
2021/06/25 16:53:22;;;;;;;18.60;14.25;;;32.20;65.20;;;;;;5171529;27;20125;-81
2021/06/25 16:55:48;;;;;;;18.52;13.77;;;32.30;65.20;;;;;;5170952;27;20042;-80
2021/06/25 16:58:15;;;;;;;18.20;14.13;;;32.30;64.90;;;;;;5171627;27;20026;-80
2021/06/25 17:00:44;;;;;;;20.63;13.73;;;32.30;65.60;;;;;;5152922;27;20045;-81
2021/06/25 17:03:11;;;;;;;16.10;13.40;;;32.30;64.80;;;;;;5171262;27;20486;-81
2021/06/25 17:05:38;;;;;;;17.70;13.57;;;32.30;64.70;;;;;;5171338;27;20494;-81
2021/06/25 17:08:05;;;;;;;18.85;14.27;;;32.40;64.70;;;;;;5171364;27;20122;-81
2021/06/25 17:10:32;;;;;;;17.45;13.52;;;32.40;64.40;;;;;;5171093;27;20511;-80
2021/06/25 17:12:58;;;;;;;17.13;14.07;;;32.30;64.10;;;;;;5171436;27;20061;-81
2021/06/25 17:15:24;;;;;;;17.30;14.15;;;32.30;64.50;;;;;;5171416;27;20026;-80
2021/06/25 17:17:50;;;;;;;16.50;13.07;;;32.40;64.40;;;;;;5135545;27;20107;-81
2021/06/25 17:20:16;;;;;;;15.05;13.38;;;32.40;64.00;;;;;;5171125;27;20038;-81
2021/06/25 17:22:42;;;;;;;18.42;13.75;;;32.40;64.00;;;;;;5170575;27;20042;-81
2021/06/25 17:25:11;;;;;;;14.88;13.38;;;32.40;63.20;;;;;;5158934;27;20529;-79
2021/06/25 17:27:38;;;;;;;17.92;13.60;;;32.40;62.90;;;;;;5157205;27;20038;-81
2021/06/25 17:30:05;;;;;;;18.40;12.80;;;32.30;62.90;;;;;;5157043;27;20023;-81
2021/06/25 17:32:31;;;;;;;17.40;13.68;;;32.30;63.20;;;;;;5156911;27;20130;-81
2021/06/25 17:35:00;;;;;;;20.13;13.85;;;32.30;63.00;;;;;;5156818;27;20065;-81
2021/06/25 17:37:26;;;;;;;20.05;13.77;;;32.30;62.90;;;;;;5138711;27;20042;-78
2021/06/25 17:39:52;;;;;;;15.90;13.13;;;32.30;63.10;;;;;;5157318;27;20086;-79
2021/06/25 17:42:17;;;;;;;21.02;13.90;;;32.40;63.60;;;;;;5156744;27;20426;-80
2021/06/25 17:44:43;;;;;;;19.23;13.90;;;32.30;62.90;;;;;;5156663;27;20034;-80
2021/06/25 17:47:09;;;;;;;15.38;13.45;;;32.30;62.90;;;;;;5156944;27;20031;-80
2021/06/25 17:49:35;;;;;;;15.10;13.57;;;32.30;63.10;;;;;;5156888;27;20561;-81
2021/06/25 17:52:02;;;;;;;14.60;13.02;;;32.30;62.80;;;;;;5121153;27;20383;-81
2021/06/25 17:54:28;;;;;;;16.42;13.77;;;32.30;62.80;;;;;;5156549;27;20487;-81
2021/06/25 17:56:54;;;;;;;20.15;14.93;;;32.30;62.80;;;;;;5156502;27;20125;-81
2021/06/25 17:59:19;;;;;;;22.15;14.77;;;32.30;62.80;;;;;;5156492;27;20049;-81
2021/06/25 18:01:45;;;;;;;19.67;13.95;;;32.30;62.80;;;;;;5156440;27;20066;-80
2021/06/25 18:04:11;;;;;;;17.63;13.60;;;32.30;62.90;;;;;;5156522;27;20046;-80
2021/06/25 18:06:37;;;;;;;20.92;14.15;;;32.20;63.00;;;;;;5156154;27;20061;-81
2021/06/25 18:09:03;;;;;;;22.17;13.95;;;32.20;63.00;;;;;;5156532;27;20121;-81
2021/06/25 18:11:33;;;;;;;16.05;12.95;;;32.20;63.20;;;;;;5156212;27;20478;-81
2021/06/25 18:13:59;;;;;;;21.25;14.18;;;32.20;63.10;;;;;;5155859;27;20114;-80
2021/06/25 18:16:25;;;;;;;16.15;12.70;;;32.20;63.10;;;;;;5137873;27;20057;-80
2021/06/25 18:18:57;;;;;;;20.05;13.68;;;32.20;63.10;;;;;;5156148;27;20397;-80
2021/06/25 18:21:23;;;;;;;14.65;13.02;;;32.10;63.20;;;;;;5155963;27;20039;-81
2021/06/25 18:23:49;;;;;;;16.98;12.73;;;32.10;63.10;;;;;;5155883;27;20049;-80
2021/06/25 18:26:16;;;;;;;16.58;12.57;;;32.10;63.10;;;;;;5155870;27;20062;-80
2021/06/25 18:28:42;;;;;;;21.95;13.43;;;32.10;63.70;;;;;;5155724;27;20409;-80
2021/06/25 18:31:08;;;;;;;18.75;12.35;;;32.00;62.90;;;;;;5155884;27;20050;-80
2021/06/25 18:33:34;;;;;;;19.25;12.68;;;32.10;62.80;;;;;;5137113;27;20098;-81
2021/06/25 18:36:00;;;;;;;21.40;12.35;;;32.00;62.70;;;;;;5154583;27;20493;-81
2021/06/25 18:38:26;;;;;;;13.68;12.00;;;32.00;62.70;;;;;;5140174;27;20136;-80
2021/06/25 18:40:52;;;;;;;18.00;11.88;;;32.00;62.50;;;;;;5120529;27;20086;-81
2021/06/25 18:43:18;;;;;;;18.13;12.30;;;32.00;62.60;;;;;;5155508;27;20197;-80
2021/06/25 18:45:46;;;;;;;14.13;11.32;;;32.00;62.60;;;;;;5155403;27;20530;-81
2021/06/25 18:48:12;;;;;;;14.00;11.93;;;32.00;62.70;;;;;;5137266;27;20398;-81
2021/06/25 18:50:38;;;;;;;23.15;12.45;;;32.00;62.50;;;;;;5137101;27;20034;-81
2021/06/25 18:53:04;;;;;;;13.57;11.90;;;32.00;62.50;;;;;;5155549;27;20038;-81
2021/06/25 18:55:31;;;;;;;12.70;11.40;;;32.10;62.50;;;;;;5155546;27;20035;-82
2021/06/25 18:57:57;;;;;;;13.45;11.52;;;32.00;62.90;;;;;;5155512;27;20043;-81
2021/06/25 19:00:25;;;;;;;18.02;12.68;;;32.00;62.40;;;;;;5155410;27;20083;-81
2021/06/25 19:02:51;;;;;;;18.17;11.30;;;32.00;62.30;;;;;;5155072;27;20041;-81
2021/06/25 19:05:18;;;;;;;17.27;12.15;;;32.00;61.90;;;;;;5155113;27;20061;-81
2021/06/25 19:07:44;;;;;;;18.73;11.60;;;31.90;61.40;;;;;;5136855;27;20026;-81
2021/06/25 19:10:13;;;;;;;19.48;11.68;;;31.90;61.30;;;;;;5155064;27;20049;-80
2021/06/25 19:12:41;;;;;;;19.20;11.88;;;31.70;61.60;;;;;;5154969;27;20059;-81
2021/06/25 19:15:10;;;;;;;17.70;12.10;;;31.70;61.90;;;;;;5155243;27;20588;-81
2021/06/25 19:17:36;;;;;;;18.13;11.50;;;31.80;61.70;;;;;;5136300;27;20457;-81
2021/06/25 19:20:05;;;;;;;15.00;11.25;;;31.70;61.50;;;;;;5136639;27;20175;-81
2021/06/25 19:22:31;;;;;;;16.10;12.18;;;31.50;61.90;;;;;;5136333;27;20500;-81
2021/06/25 19:24:57;;;;;;;18.35;12.02;;;31.40;62.00;;;;;;5136738;27;20030;-81
2021/06/25 19:27:23;;;;;;;17.15;11.80;;;31.50;62.20;;;;;;5155116;27;20494;-81
2021/06/25 19:29:49;;;;;;;16.45;12.05;;;31.50;62.20;;;;;;5154746;27;20034;-81
2021/06/25 19:32:15;;;;;;;22.40;12.70;;;31.50;62.30;;;;;;5136385;27;20045;-81
2021/06/25 19:34:41;;;;;;;17.77;11.90;;;31.50;62.40;;;;;;5154994;27;20095;-80
2021/06/25 19:37:09;;;;;;;20.70;12.70;;;31.60;62.60;;;;;;5154824;27;20479;-80
2021/06/25 19:39:35;;;;;;;18.38;12.23;;;31.50;62.50;;;;;;5136375;27;20091;-81
2021/06/25 19:42:01;;;;;;;19.70;12.40;;;31.50;62.40;;;;;;5154766;27;20041;-80
2021/06/25 19:44:28;;;;;;;18.85;12.77;;;31.30;63.20;;;;;;5154557;27;20062;-81
2021/06/25 19:47:01;;;;;;;20.38;12.50;;;31.30;62.60;;;;;;5154357;27;20031;-81
2021/06/25 19:49:27;;;;;;;17.50;12.82;;;31.40;62.40;;;;;;5154776;27;20125;-81
2021/06/25 19:51:53;;;;;;;21.88;13.25;;;31.40;62.20;;;;;;5154120;27;20455;-81
2021/06/25 19:54:19;;;;;;;18.90;13.00;;;31.50;62.20;;;;;;5154080;27;20077;-80
2021/06/25 19:56:49;;;;;;;22.20;13.85;;;31.50;62.20;;;;;;5154301;27;20035;-80
2021/06/25 19:59:15;;;;;;;19.83;13.20;;;31.40;62.30;;;;;;5154556;27;20042;-81
2021/06/25 20:01:41;;;;;;;17.08;13.30;;;31.40;62.40;;;;;;5135726;27;20061;-81
2021/06/25 20:04:07;;;;;;;17.52;13.52;;;31.30;62.40;;;;;;5154509;27;20031;-80
2021/06/25 20:06:33;;;;;;;20.38;12.63;;;31.20;62.60;;;;;;5154329;27;20046;-81
2021/06/25 20:09:00;;;;;;;15.98;12.55;;;31.30;62.80;;;;;;5154476;27;20478;-80
2021/06/25 20:11:27;;;;;;;16.10;12.82;;;31.30;62.50;;;;;;5154539;27;20049;-80
2021/06/25 20:13:53;;;;;;;14.68;11.98;;;31.40;62.60;;;;;;5118325;27;20371;-80
2021/06/25 20:16:19;;;;;;;16.17;12.45;;;31.50;62.80;;;;;;5154240;27;20038;-80
2021/06/25 20:18:47;;;;;;;18.75;13.43;;;31.50;62.90;;;;;;5153793;27;20394;-80
2021/06/25 20:21:15;;;;;;;15.95;12.75;;;31.50;62.90;;;;;;5153806;27;20075;-80
2021/06/25 20:23:41;;;;;;;20.25;12.50;;;31.50;63.20;;;;;;5154227;27;20114;-80
2021/06/25 20:26:07;;;;;;;15.63;12.57;;;31.60;63.20;;;;;;5154274;27;20023;-80
2021/06/25 20:28:34;;;;;;;17.52;12.40;;;31.60;63.30;;;;;;5135337;27;20083;-80
2021/06/25 20:31:02;;;;;;;16.23;12.57;;;31.60;63.40;;;;;;5135436;27;20087;-80
2021/06/25 20:33:30;;;;;;;14.63;12.05;;;31.60;64.20;;;;;;5154186;27;20034;-81
2021/06/25 20:35:56;;;;;;;18.02;13.15;;;31.60;63.60;;;;;;5118672;27;20129;-80
2021/06/25 20:38:22;;;;;;;15.60;11.85;;;31.60;63.70;;;;;;5135548;27;20039;-80
2021/06/25 20:40:49;;;;;;;16.65;11.82;;;31.60;63.70;;;;;;5154064;27;20468;-80
2021/06/25 20:43:16;;;;;;;18.00;12.85;;;31.60;63.60;;;;;;5135349;27;20045;-81
2021/06/25 20:45:42;;;;;;;14.15;12.23;;;31.60;63.40;;;;;;5135316;27;20077;-80
2021/06/25 20:48:08;;;;;;;14.73;12.07;;;31.60;63.30;;;;;;5154443;27;20075;-80
2021/06/25 20:50:35;;;;;;;16.75;12.80;;;31.60;63.20;;;;;;5154136;27;20034;-81
2021/06/25 20:53:02;;;;;;;14.82;12.15;;;31.60;63.10;;;;;;5154017;27;20031;-80
2021/06/25 20:55:28;;;;;;;19.00;12.38;;;31.60;63.20;;;;;;5153684;27;20103;-81
2021/06/25 20:57:54;;;;;;;17.23;12.95;;;31.50;62.80;;;;;;5118143;27;20489;-81
2021/06/25 21:00:20;;;;;;;17.42;13.05;;;31.50;62.80;;;;;;5156606;27;20117;-80
2021/06/25 21:02:46;;;;;;;19.02;12.52;;;31.50;62.50;;;;;;5157755;27;20043;-80
2021/06/25 21:05:13;;;;;;;15.98;11.60;;;31.50;62.20;;;;;;5157646;27;20027;-80
2021/06/25 21:07:39;;;;;;;14.25;11.80;;;31.50;62.50;;;;;;5157774;27;20115;-80
2021/06/25 21:10:07;;;;;;;15.93;11.98;;;31.40;62.40;;;;;;5157639;27;20127;-80
2021/06/25 21:12:34;;;;;;;16.95;12.32;;;31.40;62.60;;;;;;5157250;27;20080;-80
2021/06/25 21:15:00;;;;;;;13.07;11.75;;;31.50;63.00;;;;;;5157331;27;20122;-80
2021/06/25 21:17:26;;;;;;;13.18;11.75;;;31.50;62.70;;;;;;5157380;27;20041;-80
2021/06/25 21:19:52;;;;;;;12.63;11.43;;;31.50;62.70;;;;;;5139005;27;20041;-79
2021/06/25 21:22:21;;;;;;;19.73;12.20;;;31.50;62.80;;;;;;5157374;27;20034;-80
2021/06/25 21:24:47;;;;;;;17.45;12.35;;;31.50;62.20;;;;;;5157162;27;20034;-79
2021/06/25 21:27:13;;;;;;;15.35;11.73;;;31.50;62.40;;;;;;5156414;27;20043;-79
2021/06/25 21:29:40;;;;;;;14.35;11.70;;;31.50;62.30;;;;;;5157291;27;20035;-80
2021/06/25 21:32:07;;;;;;;16.40;11.27;;;31.50;62.30;;;;;;5156955;27;20034;-80
2021/06/25 21:34:33;;;;;;;13.15;11.55;;;31.50;62.50;;;;;;5156966;27;20155;-80
2021/06/25 21:36:59;;;;;;;22.08;11.75;;;31.50;62.30;;;;;;5157119;27;20087;-80
2021/06/25 21:39:25;;;;;;;14.82;10.98;;;31.50;62.40;;;;;;5138447;27;20030;-80
2021/06/25 21:41:51;;;;;;;21.25;11.40;;;31.50;62.50;;;;;;5138130;27;20058;-80
2021/06/25 21:44:16;;;;;;;12.75;11.23;;;31.50;62.50;;;;;;5156994;27;20118;-80
2021/06/25 21:46:42;;;;;;;12.98;10.75;;;31.50;62.10;;;;;;5156861;27;20038;-80
2021/06/25 21:49:09;;;;;;;15.15;11.65;;;31.50;62.20;;;;;;5156759;27;20452;-80
2021/06/25 21:51:37;;;;;;;13.63;10.77;;;31.50;62.20;;;;;;5156829;27;20038;-81
2021/06/25 21:54:03;;;;;;;16.10;11.18;;;31.50;62.00;;;;;;5156597;27;20078;-80
2021/06/25 21:56:29;;;;;;;12.65;11.23;;;31.40;61.80;;;;;;5156425;27;20073;-81
2021/06/25 21:58:55;;;;;;;11.73;10.48;;;31.40;62.00;;;;;;5156792;27;20066;-80
2021/06/25 22:01:21;;;;;;;16.27;11.20;;;31.50;62.30;;;;;;5156763;27;20027;-80
2021/06/25 22:03:49;;;;;;;11.75;10.23;;;31.50;62.20;;;;;;5138125;27;20497;-80
2021/06/25 22:06:17;;;;;;;19.55;11.10;;;31.40;62.10;;;;;;5121216;27;20068;-80
2021/06/25 22:08:45;;;;;;;14.55;11.15;;;31.40;62.10;;;;;;5156646;27;20031;-80
2021/06/25 22:11:12;;;;;;;11.75;10.40;;;31.40;62.30;;;;;;5156184;27;20030;-80
2021/06/25 22:13:38;;;;;;;14.32;10.73;;;31.40;62.00;;;;;;5137891;27;20066;-80
2021/06/25 22:16:05;;;;;;;13.15;10.15;;;31.40;62.00;;;;;;5156504;27;20035;-80
2021/06/25 22:18:31;;;;;;;12.70;10.00;;;31.40;62.60;;;;;;5156137;27;20045;-80
2021/06/25 22:20:57;;;;;;;13.85;10.75;;;31.50;61.60;;;;;;5156219;27;20039;-80
2021/06/25 22:23:23;;;;;;;12.98;10.48;;;31.50;61.70;;;;;;5156087;27;20031;-80
2021/06/25 22:25:49;;;;;;;15.13;10.15;;;31.40;61.50;;;;;;5155976;27;20051;-81
2021/06/25 22:28:16;;;;;;;11.68;9.77;;;31.40;62.00;;;;;;5156001;27;20129;-81
2021/06/25 22:30:42;;;;;;;14.23;9.80;;;31.40;61.80;;;;;;5155797;27;20027;-81
2021/06/25 22:33:08;;;;;;;14.07;10.35;;;31.40;61.10;;;;;;5156022;27;20049;-81
2021/06/25 22:35:35;;;;;;;18.92;10.18;;;31.40;61.20;;;;;;5137412;27;20042;-82
2021/06/25 22:38:01;;;;;;;13.05;9.60;;;31.40;61.00;;;;;;5155823;27;20061;-81
2021/06/25 22:40:28;;;;;;;15.52;9.68;;;31.30;60.80;;;;;;5155646;27;20031;-81
2021/06/25 22:42:54;;;;;;;13.43;9.88;;;31.30;60.70;;;;;;5155722;27;20041;-81
2021/06/25 22:45:20;;;;;;;16.38;9.43;;;31.30;60.60;;;;;;5137455;27;20039;-81
2021/06/25 22:47:47;;;;;;;11.32;9.75;;;31.30;60.20;;;;;;5120005;27;20034;-81
2021/06/25 22:50:14;;;;;;;12.60;9.23;;;31.30;60.20;;;;;;5136997;27;20398;-81
2021/06/25 22:52:40;;;;;;;12.13;9.32;;;31.30;60.10;;;;;;5137001;27;20034;-81
2021/06/25 22:55:07;;;;;;;10.10;9.05;;;31.30;60.00;;;;;;5155393;27;20039;-81
2021/06/25 22:57:35;;;;;;;10.10;8.60;;;31.20;60.10;;;;;;5155676;27;20122;-80
2021/06/25 23:00:03;;;;;;;12.05;8.95;;;31.20;60.00;;;;;;5155255;27;20482;-80
2021/06/25 23:02:29;;;;;;;12.82;8.18;;;31.20;60.20;;;;;;5155277;27;20548;-81
2021/06/25 23:04:54;;;;;;;9.98;8.35;;;31.20;59.70;;;;;;5155414;27;20119;-80
2021/06/25 23:07:21;;;;;;;10.32;8.48;;;31.20;59.90;;;;;;5155368;27;20455;-80
2021/06/25 23:09:47;;;;;;;11.38;8.18;;;31.20;59.70;;;;;;5154926;27;20039;-80
2021/06/25 23:12:12;;;;;;;14.23;8.40;;;31.20;59.80;;;;;;5136950;27;20045;-80
2021/06/25 23:14:39;;;;;;;9.20;7.60;;;31.20;59.30;;;;;;5155391;27;20509;-80
2021/06/25 23:17:05;;;;;;;8.20;7.25;;;31.20;59.20;;;;;;5136890;27;20038;-80
2021/06/25 23:19:32;;;;;;;8.48;7.50;;;31.20;59.00;;;;;;5154933;27;20078;-80
2021/06/25 23:21:58;;;;;;;11.63;7.57;;;31.20;59.30;;;;;;5136165;27;20068;-80
2021/06/25 23:24:24;;;;;;;10.48;7.60;;;31.20;59.10;;;;;;5119420;27;20074;-81
2021/06/25 23:26:50;;;;;;;8.30;6.75;;;31.20;59.30;;;;;;5154974;27;20086;-81
2021/06/25 23:29:16;;;;;;;10.38;6.78;;;31.20;58.90;;;;;;5154999;27;20398;-80
2021/06/25 23:31:42;;;;;;;8.98;7.07;;;31.10;58.80;;;;;;5136296;27;20042;-81
2021/06/25 23:34:08;;;;;;;10.27;7.00;;;31.10;58.60;;;;;;5136466;27;20405;-81
2021/06/25 23:36:34;;;;;;;10.20;6.82;;;31.10;58.60;;;;;;5154532;27;20387;-81
2021/06/25 23:39:00;;;;;;;11.27;6.38;;;31.10;58.50;;;;;;5136044;27;20038;-81
2021/06/25 23:41:26;;;;;;;6.93;6.22;;;31.10;58.30;;;;;;5154921;27;20509;-81
2021/06/25 23:43:52;;;;;;;7.03;6.28;;;31.10;58.30;;;;;;5119261;27;20075;-81
2021/06/25 23:46:18;;;;;;;11.27;6.70;;;31.10;58.30;;;;;;5154918;27;20510;-80
2021/06/25 23:48:44;;;;;;;6.60;5.88;;;31.10;58.10;;;;;;5154798;27;20069;-80
2021/06/25 23:51:10;;;;;;;9.13;6.30;;;31.10;58.00;;;;;;5135999;27;20065;-80
2021/06/25 23:53:36;;;;;;;8.98;6.35;;;31.10;58.00;;;;;;5135726;27;20035;-80
2021/06/25 23:56:01;;;;;;;8.52;6.18;;;31.10;57.90;;;;;;5154345;27;20126;-80
2021/06/25 23:58:32;;;;;;;7.80;5.75;;;31.00;57.90;;;;;;5154397;27;20038;-81
